createdAt,value
2023-12-20T00:02:13.091Z,6.55
2023-12-20T00:04:40.021Z,6.52
2023-12-20T00:07:06.856Z,6.41
2023-12-20T00:09:41.733Z,6.47
2023-12-20T00:12:13.641Z,6.47
2023-12-20T00:14:40.443Z,6.22
2023-12-20T00:17:14.964Z,6.43
2023-12-20T00:19:41.971Z,6.25
2023-12-20T00:22:19.743Z,6.06
2023-12-20T00:24:51.521Z,6.26
2023-12-20T00:27:22.545Z,6.47
2023-12-20T00:29:51.420Z,6.54
2023-12-20T00:32:21.182Z,6.42
2023-12-20T00:34:48.083Z,6.30
2023-12-20T00:37:15.452Z,6.24
2023-12-20T00:39:48.714Z,6.19
2023-12-20T00:42:16.199Z,6.05
2023-12-20T00:44:42.847Z,5.97
2023-12-20T00:47:16.927Z,6.01
2023-12-20T00:49:50.600Z,5.96
2023-12-20T00:52:25.407Z,5.89
2023-12-20T00:54:52.558Z,6.07
2023-12-20T00:57:19.641Z,6.12
2023-12-20T00:59:46.430Z,5.96
2023-12-20T01:02:15.623Z,6.09
2023-12-20T01:04:42.589Z,6.06
2023-12-20T01:07:12.553Z,6.14
2023-12-20T01:09:39.332Z,6.46
2023-12-20T01:12:10.266Z,5.92
2023-12-20T01:14:46.219Z,6.16
2023-12-20T01:17:13.714Z,6.40
2023-12-20T01:19:40.443Z,6.31
2023-12-20T01:22:07.156Z,6.30
2023-12-20T01:24:41.705Z,6.27
2023-12-20T01:27:19.238Z,6.18
2023-12-20T01:29:46.002Z,6.13
2023-12-20T01:32:12.835Z,6.07
2023-12-20T01:34:39.743Z,5.68
2023-12-20T01:37:06.605Z,6.00
2023-12-20T01:39:41.235Z,6.17
2023-12-20T01:42:10.497Z,6.15
2023-12-20T01:44:37.358Z,5.82
2023-12-20T01:47:04.456Z,5.92
2023-12-20T01:49:31.850Z,5.71
2023-12-20T01:51:59.326Z,5.78
2023-12-20T01:54:26.462Z,5.67
2023-12-20T01:56:53.319Z,5.67
2023-12-20T01:59:21.967Z,5.72
2023-12-20T02:01:48.945Z,5.56
2023-12-20T02:04:16.764Z,5.61
2023-12-20T02:06:43.876Z,5.77
2023-12-20T02:09:10.888Z,5.91
2023-12-20T02:11:37.802Z,5.78
2023-12-20T02:14:06.605Z,6.04
2023-12-20T02:16:33.581Z,5.91
2023-12-20T02:19:00.508Z,5.91
2023-12-20T02:21:33.949Z,5.91
2023-12-20T02:24:00.676Z,6.00
2023-12-20T02:26:27.958Z,5.90
2023-12-20T02:28:55.631Z,5.88
2023-12-20T02:31:26.702Z,5.89
2023-12-20T02:33:53.514Z,5.46
2023-12-20T02:36:21.951Z,5.69
2023-12-20T02:38:49.241Z,5.71
2023-12-20T02:41:21.796Z,5.69
2023-12-20T02:43:48.936Z,5.85
2023-12-20T02:46:18.388Z,5.55
2023-12-20T02:48:45.211Z,5.64
2023-12-20T02:51:12.068Z,5.41
2023-12-20T02:53:38.846Z,5.57
2023-12-20T02:56:05.892Z,5.58
2023-12-20T02:58:35.770Z,5.54
2023-12-20T03:01:02.617Z,5.55
2023-12-20T03:03:29.443Z,5.72
2023-12-20T03:05:56.120Z,5.42
2023-12-20T03:08:22.964Z,5.69
2023-12-20T03:10:49.916Z,5.64
2023-12-20T03:13:16.773Z,5.73
2023-12-20T03:15:43.773Z,5.61
2023-12-20T03:18:10.547Z,5.71
2023-12-20T03:20:37.299Z,5.55
2023-12-20T03:23:04.437Z,5.19
2023-12-20T03:25:31.350Z,5.32
2023-12-20T03:27:58.302Z,5.33
2023-12-20T03:30:25.076Z,5.35
2023-12-20T03:32:51.785Z,5.40
2023-12-20T03:35:18.571Z,5.37
2023-12-20T03:37:45.659Z,5.25
2023-12-20T03:40:14.897Z,5.48
2023-12-20T03:42:42.074Z,5.20
2023-12-20T03:45:09.669Z,5.58
2023-12-20T03:47:37.930Z,5.74
2023-12-20T03:50:05.362Z,5.42
2023-12-20T03:52:32.200Z,5.35
2023-12-20T03:54:58.933Z,5.48
2023-12-20T03:57:25.786Z,5.44
2023-12-20T03:59:52.490Z,5.51
2023-12-20T04:02:19.316Z,5.42
2023-12-20T04:04:46.303Z,5.60
2023-12-20T04:07:13.352Z,5.68
2023-12-20T04:09:44.434Z,5.60
2023-12-20T04:12:13.759Z,5.62
2023-12-20T04:14:47.517Z,5.59
2023-12-20T04:17:17.111Z,5.47
2023-12-20T04:19:46.734Z,5.43
2023-12-20T04:22:13.472Z,5.61
2023-12-20T04:24:40.214Z,5.58
2023-12-20T04:27:07.064Z,5.29
2023-12-20T04:29:33.795Z,5.48
2023-12-20T04:32:00.656Z,5.35
2023-12-20T04:34:27.941Z,5.16
2023-12-20T04:36:55.196Z,4.45
2023-12-20T04:39:22.074Z,4.97
2023-12-20T04:41:48.957Z,5.23
2023-12-20T04:44:19.205Z,5.00
2023-12-20T04:46:47.685Z,5.39
2023-12-20T04:49:15.966Z,5.26
2023-12-20T04:51:42.694Z,5.37
2023-12-20T04:54:09.547Z,5.61
2023-12-20T04:56:36.399Z,5.55
2023-12-20T04:59:07.021Z,5.50
2023-12-20T05:01:33.999Z,5.22
2023-12-20T05:04:01.190Z,5.52
2023-12-20T05:06:28.023Z,4.70
2023-12-20T05:08:54.921Z,5.59
2023-12-20T05:11:24.873Z,5.45
2023-12-20T05:13:52.801Z,5.04
2023-12-20T05:16:20.357Z,5.45
2023-12-20T05:18:49.289Z,5.14
2023-12-20T05:21:16.074Z,5.49
2023-12-20T05:23:46.270Z,5.29
2023-12-20T05:26:12.963Z,5.37
2023-12-20T05:28:39.683Z,5.12
2023-12-20T05:31:07.058Z,5.46
2023-12-20T05:33:34.303Z,5.45
2023-12-20T05:36:01.326Z,5.16
2023-12-20T05:38:29.785Z,5.29
2023-12-20T05:40:57.825Z,5.32
2023-12-20T05:43:24.956Z,5.32
2023-12-20T05:46:00.256Z,5.31
2023-12-20T05:48:28.895Z,5.10
2023-12-20T05:50:56.578Z,5.30
2023-12-20T05:53:23.814Z,5.22
2023-12-20T05:55:50.618Z,5.24
2023-12-20T05:58:17.573Z,5.08
2023-12-20T06:00:44.616Z,5.30
2023-12-20T06:03:11.635Z,5.35
2023-12-20T06:05:38.382Z,5.47
2023-12-20T06:08:07.634Z,5.49
2023-12-20T06:10:34.449Z,5.04
2023-12-20T06:13:02.237Z,5.59
2023-12-20T06:15:29.227Z,5.60
2023-12-20T06:17:56.179Z,5.29
2023-12-20T06:20:23.148Z,5.68
2023-12-20T06:22:49.956Z,5.77
2023-12-20T06:25:16.834Z,5.90
2023-12-20T06:27:43.954Z,5.56
2023-12-20T06:30:13.417Z,5.75
2023-12-20T06:32:40.800Z,5.74
2023-12-20T06:35:08.107Z,5.69
2023-12-20T06:37:37.796Z,5.61
2023-12-20T06:40:13.972Z,5.67
2023-12-20T06:42:54.473Z,5.65
2023-12-20T06:45:35.577Z,5.58
2023-12-20T06:48:06.912Z,5.29
2023-12-20T06:50:34.052Z,4.83
2023-12-20T06:53:00.874Z,5.54
2023-12-20T06:55:27.593Z,5.35
2023-12-20T06:57:54.355Z,5.58
2023-12-20T07:00:21.973Z,5.82
2023-12-20T07:02:48.894Z,5.88
2023-12-20T07:05:18.609Z,5.73
2023-12-20T07:07:45.815Z,5.89
2023-12-20T07:10:12.868Z,5.81
2023-12-20T07:12:39.746Z,6.09
2023-12-20T07:15:07.616Z,6.00
2023-12-20T07:17:35.239Z,6.02
2023-12-20T07:20:05.488Z,5.98
2023-12-20T07:22:33.278Z,6.06
2023-12-20T07:25:01.780Z,5.71
2023-12-20T07:27:29.170Z,6.11
2023-12-20T07:29:55.951Z,6.14
2023-12-20T07:32:22.833Z,6.31
2023-12-20T07:34:49.823Z,6.31
2023-12-20T07:37:18.435Z,6.30
2023-12-20T07:39:48.127Z,6.19
2023-12-20T07:42:15.036Z,6.46
2023-12-20T07:44:43.263Z,6.48
2023-12-20T07:47:10.127Z,6.54
2023-12-20T07:49:37.250Z,6.56
2023-12-20T07:52:05.055Z,6.45
2023-12-20T07:54:31.926Z,6.66
2023-12-20T07:57:01.154Z,6.49
2023-12-20T07:59:32.863Z,6.79
2023-12-20T08:02:00.996Z,6.84
2023-12-20T08:04:28.708Z,6.75
2023-12-20T08:06:55.976Z,6.81
2023-12-20T08:09:23.267Z,6.46
2023-12-20T08:11:50.563Z,6.94
2023-12-20T08:14:19.934Z,6.73
2023-12-20T08:16:46.874Z,7.12
2023-12-20T08:19:15.177Z,7.16
2023-12-20T08:21:42.174Z,6.47
2023-12-20T08:24:09.328Z,6.42
2023-12-20T08:26:36.176Z,7.11
2023-12-20T08:29:05.538Z,6.28
2023-12-20T08:31:35.024Z,7.30
2023-12-20T08:34:02.128Z,7.42
2023-12-20T08:36:29.280Z,7.37
2023-12-20T08:39:05.697Z,7.29
2023-12-20T08:41:32.586Z,7.20
2023-12-20T08:43:59.359Z,7.32
2023-12-20T08:46:27.176Z,7.24
2023-12-20T08:48:58.993Z,7.19
2023-12-20T08:51:26.836Z,7.29
2023-12-20T08:53:54.051Z,7.00
2023-12-20T08:56:21.592Z,6.96
2023-12-20T08:58:48.425Z,7.17
2023-12-20T09:01:16.404Z,7.23
2023-12-20T09:03:43.771Z,7.00
2023-12-20T09:06:10.795Z,7.04
2023-12-20T09:08:41.010Z,7.13
2023-12-20T09:11:08.359Z,7.39
2023-12-20T09:13:35.792Z,7.47
2023-12-20T09:16:04.630Z,7.36
2023-12-20T09:18:32.683Z,7.53
2023-12-20T09:21:00.011Z,7.33
2023-12-20T09:23:29.320Z,7.55
2023-12-20T09:25:58.024Z,7.34
2023-12-20T09:28:27.908Z,7.25
2023-12-20T09:30:54.841Z,7.55
2023-12-20T09:33:29.995Z,7.83
2023-12-20T09:35:57.261Z,7.80
2023-12-20T09:38:24.041Z,7.77
2023-12-20T09:40:51.774Z,8.02
2023-12-20T09:43:24.659Z,7.71
2023-12-20T09:45:55.124Z,8.02
2023-12-20T09:48:24.381Z,7.95
2023-12-20T09:50:53.748Z,8.05
2023-12-20T09:53:24.998Z,7.85
2023-12-20T09:55:52.445Z,8.10
2023-12-20T09:58:19.596Z,8.07
2023-12-20T10:00:49.650Z,8.24
2023-12-20T10:03:17.195Z,8.21
2023-12-20T10:05:46.131Z,8.46
2023-12-20T10:08:13.225Z,8.34
2023-12-20T10:10:47.893Z,8.42
2023-12-20T10:13:16.595Z,8.32
2023-12-20T10:15:44.026Z,7.85
2023-12-20T10:18:13.549Z,8.16
2023-12-20T10:20:42.186Z,8.59
2023-12-20T10:23:10.428Z,8.42
2023-12-20T10:25:37.328Z,8.60
2023-12-20T10:28:15.698Z,8.64
2023-12-20T10:30:43.815Z,8.58
2023-12-20T10:33:11.691Z,8.63
2023-12-20T10:35:42.635Z,8.70
2023-12-20T10:38:14.533Z,8.80
2023-12-20T10:40:42.358Z,8.81
2023-12-20T10:43:10.294Z,8.90
2023-12-20T10:45:37.473Z,8.92
2023-12-20T10:48:05.138Z,9.05
2023-12-20T10:50:32.928Z,8.89
2023-12-20T10:53:00.892Z,9.03
2023-12-20T10:55:30.974Z,9.22
2023-12-20T10:58:11.547Z,8.91
2023-12-20T11:00:42.827Z,9.23
2023-12-20T11:03:14.331Z,9.11
2023-12-20T11:06:04.259Z,9.37
2023-12-20T11:08:40.127Z,9.36
2023-12-20T11:11:31.261Z,9.46
2023-12-20T11:14:12.550Z,9.20
2023-12-20T11:16:45.558Z,9.37
2023-12-20T11:19:27.664Z,9.43
2023-12-20T11:21:54.715Z,9.43
2023-12-20T11:24:25.779Z,9.39
2023-12-20T11:26:57.828Z,9.14
2023-12-20T11:29:31.162Z,9.57
2023-12-20T11:32:04.936Z,9.60
2023-12-20T11:34:34.522Z,8.98
2023-12-20T11:37:03.597Z,9.59
2023-12-20T11:39:33.949Z,9.62
2023-12-20T11:42:07.688Z,9.60
2023-12-20T11:44:34.768Z,9.69
2023-12-20T11:47:01.743Z,9.67
2023-12-20T11:49:30.673Z,9.29
2023-12-20T11:51:58.121Z,9.68
2023-12-20T11:54:24.882Z,9.66
2023-12-20T11:56:55.381Z,9.57
2023-12-20T11:59:23.978Z,9.49
2023-12-20T12:01:52.904Z,9.54
2023-12-20T12:04:22.097Z,9.62
2023-12-20T12:06:49.135Z,9.49
2023-12-20T12:09:16.498Z,9.47
2023-12-20T12:11:44.351Z,8.97
2023-12-20T12:14:12.642Z,9.71
2023-12-20T12:16:44.455Z,9.75
2023-12-20T12:19:24.818Z,9.69
2023-12-20T12:21:54.662Z,9.83
2023-12-20T12:24:23.325Z,9.85
2023-12-20T12:26:53.408Z,9.45
2023-12-20T12:29:20.352Z,9.60
2023-12-20T12:31:51.559Z,9.79
2023-12-20T12:34:22.148Z,9.84
2023-12-20T12:36:50.193Z,9.75
2023-12-20T12:39:19.849Z,9.79
2023-12-20T12:41:46.713Z,9.66
2023-12-20T12:44:17.857Z,9.82
2023-12-20T12:46:47.395Z,9.59
2023-12-20T12:49:15.137Z,9.71
2023-12-20T12:51:42.439Z,9.84
2023-12-20T12:54:10.117Z,9.88
2023-12-20T12:56:38.198Z,8.97
2023-12-20T12:59:05.658Z,9.98
2023-12-20T13:01:33.015Z,9.92
2023-12-20T13:04:00.055Z,9.95
2023-12-20T13:06:34.651Z,10.02
2023-12-20T13:09:06.156Z,9.99
2023-12-20T13:11:33.915Z,9.99
2023-12-20T13:14:00.994Z,9.93
2023-12-20T13:16:28.299Z,9.90
2023-12-20T13:18:59.136Z,9.99
2023-12-20T13:21:28.089Z,9.85
2023-12-20T13:23:55.629Z,9.89
2023-12-20T13:26:22.696Z,9.84
2023-12-20T13:28:49.533Z,9.82
2023-12-20T13:31:16.541Z,9.83
2023-12-20T13:33:43.428Z,9.75
2023-12-20T13:36:18.932Z,9.84
2023-12-20T13:38:45.924Z,9.76
2023-12-20T13:41:13.902Z,9.54
2023-12-20T13:43:42.719Z,9.68
2023-12-20T13:46:10.869Z,9.49
2023-12-20T13:48:39.279Z,9.73
2023-12-20T13:51:07.167Z,9.66
2023-12-20T13:53:34.082Z,9.43
2023-12-20T13:56:01.286Z,8.85
2023-12-20T13:58:28.190Z,8.42
2023-12-20T14:00:58.060Z,8.39
2023-12-20T14:03:27.329Z,9.02
2023-12-20T14:05:54.263Z,8.88
2023-12-20T14:08:25.365Z,8.77
2023-12-20T14:10:52.169Z,9.40
2023-12-20T14:13:19.378Z,9.29
2023-12-20T14:15:46.093Z,9.15
2023-12-20T14:18:14.087Z,9.20
2023-12-20T14:20:43.220Z,9.34
2023-12-20T14:23:13.404Z,9.08
2023-12-20T14:25:52.083Z,9.18
2023-12-20T14:28:20.844Z,9.10
2023-12-20T14:30:47.790Z,9.21
2023-12-20T14:33:18.141Z,8.77
2023-12-20T14:35:49.495Z,9.16
2023-12-20T14:38:16.645Z,9.21
2023-12-20T14:40:43.760Z,8.47
2023-12-20T14:43:10.665Z,9.15
2023-12-20T14:45:50.235Z,8.91
2023-12-20T14:48:18.367Z,9.04
2023-12-20T14:50:49.733Z,8.42
2023-12-20T14:53:20.680Z,8.93
2023-12-20T14:55:50.100Z,9.18
2023-12-20T14:58:16.891Z,7.92
2023-12-20T15:00:49.027Z,9.15
2023-12-20T15:03:17.891Z,9.05
2023-12-20T15:05:49.207Z,9.07
2023-12-20T15:08:24.667Z,9.19
2023-12-20T15:10:51.870Z,8.64
2023-12-20T15:13:19.039Z,8.22
2023-12-20T15:15:47.427Z,8.49
2023-12-20T15:18:15.195Z,9.11
2023-12-20T15:20:45.849Z,8.07
2023-12-20T15:23:12.545Z,8.84
2023-12-20T15:25:40.130Z,9.00
2023-12-20T15:28:07.374Z,8.67
2023-12-20T15:30:34.561Z,8.53
2023-12-20T15:33:05.615Z,8.97
2023-12-20T15:35:35.371Z,8.94
2023-12-20T15:38:03.095Z,8.72
2023-12-20T15:40:32.318Z,8.91
2023-12-20T15:43:03.543Z,8.50
2023-12-20T15:45:31.541Z,8.00
2023-12-20T15:47:59.626Z,8.79
2023-12-20T15:50:27.987Z,8.12
2023-12-20T15:52:54.880Z,8.60
2023-12-20T15:55:22.237Z,8.64
2023-12-20T15:57:54.476Z,8.67
2023-12-20T16:00:23.280Z,8.49
2023-12-20T16:02:51.310Z,8.46
2023-12-20T16:05:23.582Z,8.34
2023-12-20T16:07:55.537Z,8.61
2023-12-20T16:10:22.849Z,8.48
2023-12-20T16:12:50.520Z,8.33
2023-12-20T16:15:17.526Z,8.37
2023-12-20T16:17:49.890Z,8.52
2023-12-20T16:20:17.142Z,8.28
2023-12-20T16:22:47.465Z,8.46
2023-12-20T16:25:22.957Z,7.89
2023-12-20T16:27:50.197Z,8.25
2023-12-20T16:30:20.351Z,8.33
2023-12-20T16:32:52.956Z,8.41
2023-12-20T16:35:21.178Z,7.40
2023-12-20T16:37:48.052Z,8.27
2023-12-20T16:40:24.677Z,8.25
2023-12-20T16:43:04.588Z,8.26
2023-12-20T16:45:31.687Z,8.23
2023-12-20T16:48:01.608Z,8.24
2023-12-20T16:50:31.124Z,8.19
2023-12-20T16:52:58.285Z,7.97
2023-12-20T16:55:25.446Z,8.17
2023-12-20T16:57:53.083Z,8.17
2023-12-20T17:02:58.354Z,8.17
2023-12-20T17:05:26.415Z,8.19
2023-12-20T17:07:53.204Z,8.01
2023-12-20T17:10:20.193Z,8.13
2023-12-20T17:12:47.048Z,7.81
2023-12-20T17:15:13.860Z,7.75
2023-12-20T17:17:40.658Z,7.86
2023-12-20T17:20:09.075Z,7.88
2023-12-20T17:22:35.826Z,7.72
2023-12-20T17:25:02.690Z,7.59
2023-12-20T17:27:32.149Z,7.80
2023-12-20T17:30:03.985Z,7.80
2023-12-20T17:32:31.012Z,7.00
2023-12-20T17:35:00.966Z,7.89
2023-12-20T17:37:30.206Z,7.99
2023-12-20T17:39:57.014Z,7.84
2023-12-20T17:42:24.064Z,8.03
2023-12-20T17:44:53.821Z,8.03
2023-12-20T17:47:20.650Z,7.86
2023-12-20T17:49:47.554Z,7.89
2023-12-20T17:52:14.323Z,7.93
2023-12-20T17:54:42.417Z,7.78
2023-12-20T17:57:09.302Z,7.89
2023-12-20T17:59:55.912Z,7.52
2023-12-20T18:02:23.527Z,7.81
2023-12-20T18:04:50.344Z,7.86
2023-12-20T18:07:18.932Z,7.98
2023-12-20T18:09:45.757Z,7.94
2023-12-20T18:12:15.588Z,7.82
2023-12-20T18:14:43.448Z,7.76
2023-12-20T18:17:10.392Z,7.80
2023-12-20T18:19:37.214Z,7.73
2023-12-20T18:22:04.490Z,7.79
2023-12-20T18:24:31.249Z,7.64
2023-12-20T18:26:59.646Z,7.69
2023-12-20T18:29:32.413Z,7.63
2023-12-20T18:31:59.284Z,7.33
2023-12-20T18:34:27.724Z,7.42
2023-12-20T18:36:54.948Z,7.42
2023-12-20T18:39:21.744Z,7.44
2023-12-20T18:41:51.897Z,7.61
2023-12-20T18:44:19.699Z,7.56
2023-12-20T18:46:46.475Z,7.49
2023-12-20T18:49:13.587Z,7.26
2023-12-20T18:51:44.139Z,7.32
2023-12-20T18:54:10.888Z,7.07
2023-12-20T18:56:46.706Z,7.38
2023-12-20T18:59:14.280Z,7.29
2023-12-20T19:01:41.724Z,7.27
2023-12-20T19:04:11.040Z,6.83
2023-12-20T19:06:38.300Z,7.18
2023-12-20T19:09:05.038Z,7.15
2023-12-20T19:11:35.463Z,6.74
2023-12-20T19:14:12.932Z,7.20
2023-12-20T19:16:52.221Z,6.73
2023-12-20T19:19:21.547Z,6.87
2023-12-20T19:21:50.391Z,7.11
2023-12-20T19:24:17.097Z,6.87
2023-12-20T19:26:43.824Z,7.03
2023-12-20T19:29:10.693Z,7.09
2023-12-20T19:31:44.744Z,7.12
2023-12-20T19:34:14.652Z,6.81
2023-12-20T19:36:41.536Z,6.87
2023-12-20T19:39:21.920Z,6.89
2023-12-20T19:41:49.604Z,6.87
2023-12-20T19:44:18.094Z,6.95
2023-12-20T19:46:48.625Z,6.68
2023-12-20T19:49:15.615Z,6.89
2023-12-20T19:51:42.947Z,6.80
2023-12-20T19:54:14.258Z,6.59
2023-12-20T19:56:41.000Z,6.56
2023-12-20T19:59:07.776Z,6.68
2023-12-20T20:01:37.691Z,6.75
2023-12-20T20:04:05.565Z,6.81
2023-12-20T20:06:32.513Z,6.82
2023-12-20T20:08:59.464Z,6.79
2023-12-20T20:11:33.017Z,6.35
2023-12-20T20:14:04.489Z,6.57
2023-12-20T20:16:32.121Z,6.37
2023-12-20T20:18:59.012Z,6.61
2023-12-20T20:21:25.895Z,6.60
2023-12-20T20:23:52.753Z,6.66
2023-12-20T20:26:19.706Z,6.13
2023-12-20T20:28:50.541Z,6.60
2023-12-20T20:31:17.499Z,6.58
2023-12-20T20:33:45.950Z,6.68
2023-12-20T20:36:12.944Z,6.71
2023-12-20T20:38:42.342Z,6.56
2023-12-20T20:41:10.337Z,6.57
2023-12-20T20:43:37.455Z,6.46
2023-12-20T20:46:07.188Z,6.59
2023-12-20T20:48:51.462Z,6.58
2023-12-20T20:51:23.804Z,6.60
2023-12-20T20:54:00.965Z,6.49
2023-12-20T20:56:41.123Z,6.52
2023-12-20T20:59:08.888Z,6.44
2023-12-20T21:01:35.772Z,6.12
2023-12-20T21:04:02.954Z,6.30
2023-12-20T21:06:49.125Z,6.34
2023-12-20T21:09:16.471Z,6.13
2023-12-20T21:11:45.297Z,6.04
2023-12-20T21:14:14.127Z,5.56
2023-12-20T21:16:41.350Z,5.09
2023-12-20T21:19:11.974Z,5.02
2023-12-20T21:21:42.376Z,5.34
2023-12-20T21:24:18.785Z,6.03
2023-12-20T21:26:49.311Z,6.28
2023-12-20T21:29:16.244Z,5.75
2023-12-20T21:31:46.196Z,5.93
2023-12-20T21:34:18.004Z,5.07
2023-12-20T21:36:45.303Z,5.88
2023-12-20T21:39:14.587Z,5.68
2023-12-20T21:41:50.938Z,6.31
2023-12-20T21:44:17.814Z,5.86
2023-12-20T21:46:46.084Z,6.50
2023-12-20T21:49:19.614Z,6.06
2023-12-20T21:51:51.164Z,5.10
2023-12-20T21:54:21.542Z,5.02
2023-12-20T21:56:51.273Z,6.47
2023-12-20T21:59:28.661Z,6.49
2023-12-20T22:02:00.223Z,6.54
2023-12-20T22:04:28.123Z,6.53
2023-12-20T22:06:58.425Z,6.60
2023-12-20T22:09:27.658Z,5.68
2023-12-20T22:11:55.703Z,6.17
2023-12-20T22:14:23.570Z,6.62
2023-12-20T22:16:52.812Z,5.35
2023-12-20T22:19:23.909Z,5.59
2023-12-20T22:21:57.267Z,5.44
2023-12-20T22:24:34.098Z,6.11
2023-12-20T22:27:06.006Z,6.68
2023-12-20T22:29:40.950Z,6.72
2023-12-20T22:32:09.821Z,6.12
2023-12-20T22:34:37.508Z,6.64
2023-12-20T22:37:09.432Z,6.20
2023-12-20T22:39:40.227Z,6.69
2023-12-20T22:42:09.805Z,6.54
2023-12-20T22:44:39.994Z,6.52
2023-12-20T22:47:06.980Z,6.62
2023-12-20T22:49:40.358Z,6.64
2023-12-20T22:52:07.693Z,6.61
2023-12-20T22:54:34.460Z,6.63
2023-12-20T22:57:01.342Z,6.56
2023-12-20T22:59:31.195Z,6.46
2023-12-20T23:02:03.028Z,6.64
2023-12-20T23:04:29.945Z,6.69
2023-12-20T23:06:56.947Z,6.44
2023-12-20T23:09:32.358Z,6.71
2023-12-20T23:12:13.774Z,6.59
2023-12-20T23:14:55.732Z,6.58
2023-12-20T23:17:29.403Z,6.68
2023-12-20T23:19:56.637Z,6.63
2023-12-20T23:22:24.328Z,6.61
2023-12-20T23:25:02.373Z,6.64
2023-12-20T23:27:29.779Z,6.69
2023-12-20T23:29:57.229Z,6.72
2023-12-20T23:32:23.880Z,6.19
2023-12-20T23:35:04.965Z,6.61
2023-12-20T23:37:39.582Z,6.54
2023-12-20T23:40:07.119Z,6.42
2023-12-20T23:42:33.912Z,6.41
2023-12-20T23:45:03.509Z,6.28
2023-12-20T23:47:30.627Z,6.37
2023-12-20T23:50:00.625Z,6.22
2023-12-20T23:52:34.988Z,6.06
2023-12-20T23:55:08.836Z,6.38
2023-12-20T23:57:35.774Z,6.32
